sensor_id;sensor_type;location;lat;lon;timestamp;P1;durP1;ratioP1;P2;durP2;ratioP2
70675;SDS011;59069;52.242;20.900;2024-01-25T00:01:20;15.77;;;1.80;;
70675;SDS011;59069;52.242;20.900;2024-01-25T00:03:46;7.85;;;1.38;;
70675;SDS011;59069;52.242;20.900;2024-01-25T00:06:12;7.17;;;1.20;;
70675;SDS011;59069;52.242;20.900;2024-01-25T00:08:37;7.00;;;1.58;;
70675;SDS011;59069;52.242;20.900;2024-01-25T00:11:03;7.83;;;1.20;;
70675;SDS011;59069;52.242;20.900;2024-01-25T00:13:29;9.93;;;1.10;;
70675;SDS011;59069;52.242;20.900;2024-01-25T00:15:55;9.20;;;0.90;;
70675;SDS011;59069;52.242;20.900;2024-01-25T00:18:20;8.47;;;1.27;;
70675;SDS011;59069;52.242;20.900;2024-01-25T00:20:46;11.30;;;1.30;;
70675;SDS011;59069;52.242;20.900;2024-01-25T00:23:12;5.53;;;1.00;;
70675;SDS011;59069;52.242;20.900;2024-01-25T00:25:37;8.55;;;0.98;;
70675;SDS011;59069;52.242;20.900;2024-01-25T00:28:03;7.17;;;1.17;;
70675;SDS011;59069;52.242;20.900;2024-01-25T00:30:28;4.85;;;0.70;;
70675;SDS011;59069;52.242;20.900;2024-01-25T00:32:54;7.77;;;0.70;;
70675;SDS011;59069;52.242;20.900;2024-01-25T00:35:21;7.47;;;0.90;;
70675;SDS011;59069;52.242;20.900;2024-01-25T00:37:46;5.63;;;1.15;;
70675;SDS011;59069;52.242;20.900;2024-01-25T00:40:12;6.83;;;0.77;;
70675;SDS011;59069;52.242;20.900;2024-01-25T00:42:45;4.90;;;0.50;;
70675;SDS011;59069;52.242;20.900;2024-01-25T00:45:18;7.93;;;0.80;;
70675;SDS011;59069;52.242;20.900;2024-01-25T00:47:44;7.37;;;1.03;;
70675;SDS011;59069;52.242;20.900;2024-01-25T00:50:10;6.10;;;1.20;;
70675;SDS011;59069;52.242;20.900;2024-01-25T00:52:36;8.23;;;1.45;;
70675;SDS011;59069;52.242;20.900;2024-01-25T00:55:02;8.83;;;1.13;;
70675;SDS011;59069;52.242;20.900;2024-01-25T00:57:28;8.93;;;1.53;;
70675;SDS011;59069;52.242;20.900;2024-01-25T00:59:54;10.90;;;1.30;;
70675;SDS011;59069;52.242;20.900;2024-01-25T01:02:20;8.20;;;1.20;;
70675;SDS011;59069;52.242;20.900;2024-01-25T01:04:47;7.90;;;1.00;;
70675;SDS011;59069;52.242;20.900;2024-01-25T01:07:13;8.70;;;1.48;;
70675;SDS011;59069;52.242;20.900;2024-01-25T01:09:39;12.23;;;1.48;;
70675;SDS011;59069;52.242;20.900;2024-01-25T01:12:04;11.67;;;1.30;;
70675;SDS011;59069;52.242;20.900;2024-01-25T01:14:31;9.98;;;1.70;;
70675;SDS011;59069;52.242;20.900;2024-01-25T01:16:56;10.70;;;1.30;;
70675;SDS011;59069;52.242;20.900;2024-01-25T01:19:22;8.25;;;1.10;;
70675;SDS011;59069;52.242;20.900;2024-01-25T01:21:47;10.27;;;1.13;;
70675;SDS011;59069;52.242;20.900;2024-01-25T01:24:13;9.00;;;1.63;;
70675;SDS011;59069;52.242;20.900;2024-01-25T01:26:38;10.17;;;1.13;;
70675;SDS011;59069;52.242;20.900;2024-01-25T01:29:04;11.00;;;1.42;;
70675;SDS011;59069;52.242;20.900;2024-01-25T01:31:29;9.27;;;1.30;;
70675;SDS011;59069;52.242;20.900;2024-01-25T01:33:55;12.35;;;1.45;;
70675;SDS011;59069;52.242;20.900;2024-01-25T01:36:21;11.00;;;1.33;;
70675;SDS011;59069;52.242;20.900;2024-01-25T01:38:47;10.33;;;1.30;;
70675;SDS011;59069;52.242;20.900;2024-01-25T01:41:13;15.40;;;2.20;;
70675;SDS011;59069;52.242;20.900;2024-01-25T01:43:38;11.88;;;1.73;;
70675;SDS011;59069;52.242;20.900;2024-01-25T01:46:05;10.47;;;1.10;;
70675;SDS011;59069;52.242;20.900;2024-01-25T01:48:36;8.88;;;1.40;;
70675;SDS011;59069;52.242;20.900;2024-01-25T01:51:02;10.77;;;1.40;;
70675;SDS011;59069;52.242;20.900;2024-01-25T01:53:27;14.30;;;1.60;;
70675;SDS011;59069;52.242;20.900;2024-01-25T01:55:53;10.57;;;1.80;;
70675;SDS011;59069;52.242;20.900;2024-01-25T01:58:19;7.90;;;1.53;;
70675;SDS011;59069;52.242;20.900;2024-01-25T02:00:46;9.90;;;1.40;;
70675;SDS011;59069;52.242;20.900;2024-01-25T02:03:14;7.60;;;1.13;;
70675;SDS011;59069;52.242;20.900;2024-01-25T02:05:39;8.50;;;1.40;;
70675;SDS011;59069;52.242;20.900;2024-01-25T02:08:06;10.65;;;1.23;;
70675;SDS011;59069;52.242;20.900;2024-01-25T02:10:32;12.00;;;2.08;;
70675;SDS011;59069;52.242;20.900;2024-01-25T02:12:57;12.83;;;1.43;;
70675;SDS011;59069;52.242;20.900;2024-01-25T02:15:23;11.50;;;1.50;;
70675;SDS011;59069;52.242;20.900;2024-01-25T02:17:48;11.40;;;1.50;;
70675;SDS011;59069;52.242;20.900;2024-01-25T02:20:14;11.48;;;1.52;;
70675;SDS011;59069;52.242;20.900;2024-01-25T02:22:39;9.13;;;1.50;;
70675;SDS011;59069;52.242;20.900;2024-01-25T02:25:05;13.03;;;1.53;;
70675;SDS011;59069;52.242;20.900;2024-01-25T02:27:31;11.73;;;1.20;;
70675;SDS011;59069;52.242;20.900;2024-01-25T02:29:56;8.00;;;1.33;;
70675;SDS011;59069;52.242;20.900;2024-01-25T02:32:22;14.00;;;1.83;;
70675;SDS011;59069;52.242;20.900;2024-01-25T02:34:47;9.90;;;1.40;;
70675;SDS011;59069;52.242;20.900;2024-01-25T02:37:12;11.43;;;1.93;;
70675;SDS011;59069;52.242;20.900;2024-01-25T02:39:39;11.15;;;1.80;;
70675;SDS011;59069;52.242;20.900;2024-01-25T02:42:04;14.63;;;1.50;;
70675;SDS011;59069;52.242;20.900;2024-01-25T02:44:30;10.17;;;1.57;;
70675;SDS011;59069;52.242;20.900;2024-01-25T02:46:55;12.70;;;1.75;;
70675;SDS011;59069;52.242;20.900;2024-01-25T02:49:21;9.37;;;1.27;;
70675;SDS011;59069;52.242;20.900;2024-01-25T02:51:48;11.77;;;1.65;;
70675;SDS011;59069;52.242;20.900;2024-01-25T02:54:13;12.23;;;1.40;;
70675;SDS011;59069;52.242;20.900;2024-01-25T02:56:39;7.80;;;1.30;;
70675;SDS011;59069;52.242;20.900;2024-01-25T02:59:04;10.67;;;1.20;;
70675;SDS011;59069;52.242;20.900;2024-01-25T03:01:39;9.77;;;1.52;;
70675;SDS011;59069;52.242;20.900;2024-01-25T03:04:06;15.03;;;1.67;;
70675;SDS011;59069;52.242;20.900;2024-01-25T03:06:32;11.95;;;1.50;;
70675;SDS011;59069;52.242;20.900;2024-01-25T03:08:57;8.83;;;1.50;;
70675;SDS011;59069;52.242;20.900;2024-01-25T03:11:23;7.73;;;1.27;;
70675;SDS011;59069;52.242;20.900;2024-01-25T03:13:48;10.27;;;1.30;;
70675;SDS011;59069;52.242;20.900;2024-01-25T03:16:13;14.77;;;1.80;;
70675;SDS011;59069;52.242;20.900;2024-01-25T03:18:39;11.40;;;1.73;;
70675;SDS011;59069;52.242;20.900;2024-01-25T03:21:04;10.00;;;1.47;;
70675;SDS011;59069;52.242;20.900;2024-01-25T03:23:30;11.07;;;1.48;;
70675;SDS011;59069;52.242;20.900;2024-01-25T03:25:55;12.77;;;1.33;;
70675;SDS011;59069;52.242;20.900;2024-01-25T03:28:21;11.13;;;1.33;;
70675;SDS011;59069;52.242;20.900;2024-01-25T03:30:46;12.50;;;1.50;;
70675;SDS011;59069;52.242;20.900;2024-01-25T03:33:12;15.70;;;1.88;;
70675;SDS011;59069;52.242;20.900;2024-01-25T03:35:37;14.90;;;1.47;;
70675;SDS011;59069;52.242;20.900;2024-01-25T03:38:03;10.67;;;1.17;;
70675;SDS011;59069;52.242;20.900;2024-01-25T03:40:28;11.50;;;1.55;;
70675;SDS011;59069;52.242;20.900;2024-01-25T03:42:53;8.83;;;1.30;;
70675;SDS011;59069;52.242;20.900;2024-01-25T03:45:19;14.13;;;1.30;;
70675;SDS011;59069;52.242;20.900;2024-01-25T03:47:44;13.03;;;1.27;;
70675;SDS011;59069;52.242;20.900;2024-01-25T03:50:10;16.93;;;1.53;;
70675;SDS011;59069;52.242;20.900;2024-01-25T03:52:35;9.90;;;1.33;;
70675;SDS011;59069;52.242;20.900;2024-01-25T03:55:01;15.33;;;1.67;;
70675;SDS011;59069;52.242;20.900;2024-01-25T03:57:26;9.67;;;1.37;;
70675;SDS011;59069;52.242;20.900;2024-01-25T03:59:52;14.37;;;1.70;;
70675;SDS011;59069;52.242;20.900;2024-01-25T04:02:17;11.38;;;1.77;;
70675;SDS011;59069;52.242;20.900;2024-01-25T04:04:43;10.48;;;1.73;;
70675;SDS011;59069;52.242;20.900;2024-01-25T04:07:09;14.47;;;1.63;;
70675;SDS011;59069;52.242;20.900;2024-01-25T04:09:34;16.27;;;2.00;;
70675;SDS011;59069;52.242;20.900;2024-01-25T04:11:59;11.00;;;1.70;;
70675;SDS011;59069;52.242;20.900;2024-01-25T04:14:25;9.77;;;1.38;;
70675;SDS011;59069;52.242;20.900;2024-01-25T04:16:50;13.27;;;2.03;;
70675;SDS011;59069;52.242;20.900;2024-01-25T04:19:16;10.90;;;1.40;;
70675;SDS011;59069;52.242;20.900;2024-01-25T04:21:41;15.13;;;1.70;;
70675;SDS011;59069;52.242;20.900;2024-01-25T04:24:07;14.35;;;1.98;;
70675;SDS011;59069;52.242;20.900;2024-01-25T04:26:32;13.30;;;1.37;;
70675;SDS011;59069;52.242;20.900;2024-01-25T04:28:58;13.30;;;1.83;;
70675;SDS011;59069;52.242;20.900;2024-01-25T04:31:23;14.20;;;1.93;;
70675;SDS011;59069;52.242;20.900;2024-01-25T04:33:49;16.00;;;2.00;;
70675;SDS011;59069;52.242;20.900;2024-01-25T04:36:14;16.40;;;1.80;;
70675;SDS011;59069;52.242;20.900;2024-01-25T04:38:40;9.27;;;1.70;;
70675;SDS011;59069;52.242;20.900;2024-01-25T04:41:05;9.37;;;1.17;;
70675;SDS011;59069;52.242;20.900;2024-01-25T04:43:34;11.63;;;1.67;;
70675;SDS011;59069;52.242;20.900;2024-01-25T04:46:01;14.20;;;1.70;;
70675;SDS011;59069;52.242;20.900;2024-01-25T04:48:28;12.07;;;1.50;;
70675;SDS011;59069;52.242;20.900;2024-01-25T04:50:53;11.03;;;1.67;;
70675;SDS011;59069;52.242;20.900;2024-01-25T04:53:19;10.27;;;1.30;;
70675;SDS011;59069;52.242;20.900;2024-01-25T04:55:44;11.70;;;1.47;;
70675;SDS011;59069;52.242;20.900;2024-01-25T04:58:10;9.27;;;1.40;;
70675;SDS011;59069;52.242;20.900;2024-01-25T05:00:36;9.27;;;1.48;;
70675;SDS011;59069;52.242;20.900;2024-01-25T05:03:03;14.10;;;2.08;;
70675;SDS011;59069;52.242;20.900;2024-01-25T05:05:29;9.30;;;1.80;;
70675;SDS011;59069;52.242;20.900;2024-01-25T05:07:54;10.17;;;1.80;;
70675;SDS011;59069;52.242;20.900;2024-01-25T05:10:20;11.17;;;2.17;;
70675;SDS011;59069;52.242;20.900;2024-01-25T05:12:45;10.30;;;1.33;;
70675;SDS011;59069;52.242;20.900;2024-01-25T05:15:11;13.30;;;1.40;;
70675;SDS011;59069;52.242;20.900;2024-01-25T05:17:36;11.57;;;2.08;;
70675;SDS011;59069;52.242;20.900;2024-01-25T05:20:02;7.93;;;0.97;;
70675;SDS011;59069;52.242;20.900;2024-01-25T05:22:28;8.93;;;1.35;;
70675;SDS011;59069;52.242;20.900;2024-01-25T05:24:53;7.60;;;1.17;;
70675;SDS011;59069;52.242;20.900;2024-01-25T05:27:19;11.70;;;1.23;;
70675;SDS011;59069;52.242;20.900;2024-01-25T05:29:44;12.80;;;1.47;;
70675;SDS011;59069;52.242;20.900;2024-01-25T05:32:09;8.90;;;1.47;;
70675;SDS011;59069;52.242;20.900;2024-01-25T05:34:35;8.10;;;1.00;;
70675;SDS011;59069;52.242;20.900;2024-01-25T05:37:00;9.33;;;1.33;;
70675;SDS011;59069;52.242;20.900;2024-01-25T05:39:26;9.50;;;1.50;;
70675;SDS011;59069;52.242;20.900;2024-01-25T05:41:51;7.27;;;1.10;;
70675;SDS011;59069;52.242;20.900;2024-01-25T05:44:17;9.17;;;1.30;;
70675;SDS011;59069;52.242;20.900;2024-01-25T05:46:42;9.10;;;0.95;;
70675;SDS011;59069;52.242;20.900;2024-01-25T05:49:07;9.73;;;1.30;;
70675;SDS011;59069;52.242;20.900;2024-01-25T05:51:33;11.80;;;1.37;;
70675;SDS011;59069;52.242;20.900;2024-01-25T05:53:58;10.10;;;1.30;;
70675;SDS011;59069;52.242;20.900;2024-01-25T05:56:24;11.27;;;1.38;;
70675;SDS011;59069;52.242;20.900;2024-01-25T05:58:50;9.90;;;1.30;;
70675;SDS011;59069;52.242;20.900;2024-01-25T06:01:15;9.95;;;1.77;;
70675;SDS011;59069;52.242;20.900;2024-01-25T06:03:41;10.90;;;1.43;;
70675;SDS011;59069;52.242;20.900;2024-01-25T06:06:07;9.00;;;1.57;;
70675;SDS011;59069;52.242;20.900;2024-01-25T06:08:35;8.73;;;1.42;;
70675;SDS011;59069;52.242;20.900;2024-01-25T06:11:01;13.23;;;1.60;;
70675;SDS011;59069;52.242;20.900;2024-01-25T06:13:26;12.75;;;1.42;;
70675;SDS011;59069;52.242;20.900;2024-01-25T06:15:52;10.20;;;1.83;;
70675;SDS011;59069;52.242;20.900;2024-01-25T06:18:17;9.90;;;1.40;;
70675;SDS011;59069;52.242;20.900;2024-01-25T06:20:42;14.33;;;1.87;;
70675;SDS011;59069;52.242;20.900;2024-01-25T06:23:09;12.80;;;1.67;;
70675;SDS011;59069;52.242;20.900;2024-01-25T06:25:34;9.55;;;1.23;;
70675;SDS011;59069;52.242;20.900;2024-01-25T06:28:01;8.38;;;1.30;;
70675;SDS011;59069;52.242;20.900;2024-01-25T06:30:27;10.53;;;1.40;;
70675;SDS011;59069;52.242;20.900;2024-01-25T06:32:52;9.45;;;1.38;;
70675;SDS011;59069;52.242;20.900;2024-01-25T06:35:18;7.27;;;1.17;;
70675;SDS011;59069;52.242;20.900;2024-01-25T06:37:43;7.82;;;1.20;;
70675;SDS011;59069;52.242;20.900;2024-01-25T06:40:09;11.27;;;1.20;;
70675;SDS011;59069;52.242;20.900;2024-01-25T06:42:35;12.60;;;1.50;;
70675;SDS011;59069;52.242;20.900;2024-01-25T06:45:00;8.17;;;1.33;;
70675;SDS011;59069;52.242;20.900;2024-01-25T06:47:26;10.60;;;1.67;;
70675;SDS011;59069;52.242;20.900;2024-01-25T06:49:51;9.73;;;1.80;;
70675;SDS011;59069;52.242;20.900;2024-01-25T06:52:17;9.73;;;2.13;;
70675;SDS011;59069;52.242;20.900;2024-01-25T06:54:43;8.77;;;1.30;;
70675;SDS011;59069;52.242;20.900;2024-01-25T06:57:09;12.38;;;1.60;;
70675;SDS011;59069;52.242;20.900;2024-01-25T06:59:34;10.40;;;1.77;;
70675;SDS011;59069;52.242;20.900;2024-01-25T07:02:00;9.27;;;1.40;;
70675;SDS011;59069;52.242;20.900;2024-01-25T07:04:27;11.00;;;1.45;;
70675;SDS011;59069;52.242;20.900;2024-01-25T07:06:53;9.95;;;1.40;;
70675;SDS011;59069;52.242;20.900;2024-01-25T07:09:19;8.47;;;1.13;;
70675;SDS011;59069;52.242;20.900;2024-01-25T07:11:44;9.73;;;1.30;;
70675;SDS011;59069;52.242;20.900;2024-01-25T07:14:10;9.45;;;1.50;;
70675;SDS011;59069;52.242;20.900;2024-01-25T07:16:35;10.23;;;1.10;;
70675;SDS011;59069;52.242;20.900;2024-01-25T07:19:00;8.57;;;1.20;;
70675;SDS011;59069;52.242;20.900;2024-01-25T07:21:26;8.40;;;1.80;;
70675;SDS011;59069;52.242;20.900;2024-01-25T07:23:51;9.98;;;1.75;;
70675;SDS011;59069;52.242;20.900;2024-01-25T07:26:20;9.27;;;1.50;;
70675;SDS011;59069;52.242;20.900;2024-01-25T07:28:46;9.32;;;1.48;;
70675;SDS011;59069;52.242;20.900;2024-01-25T07:31:12;8.80;;;1.30;;
70675;SDS011;59069;52.242;20.900;2024-01-25T07:33:37;6.60;;;1.50;;
70675;SDS011;59069;52.242;20.900;2024-01-25T07:36:03;11.07;;;1.67;;
70675;SDS011;59069;52.242;20.900;2024-01-25T07:38:28;11.03;;;1.57;;
70675;SDS011;59069;52.242;20.900;2024-01-25T07:40:54;9.90;;;1.30;;
70675;SDS011;59069;52.242;20.900;2024-01-25T07:43:20;8.70;;;1.25;;
70675;SDS011;59069;52.242;20.900;2024-01-25T07:45:46;7.13;;;0.97;;
70675;SDS011;59069;52.242;20.900;2024-01-25T07:48:11;9.30;;;1.07;;
70675;SDS011;59069;52.242;20.900;2024-01-25T07:50:37;10.40;;;1.53;;
70675;SDS011;59069;52.242;20.900;2024-01-25T07:53:02;7.53;;;0.90;;
70675;SDS011;59069;52.242;20.900;2024-01-25T07:55:28;6.45;;;1.15;;
70675;SDS011;59069;52.242;20.900;2024-01-25T07:57:54;9.40;;;1.27;;
70675;SDS011;59069;52.242;20.900;2024-01-25T08:00:20;11.57;;;1.00;;
70675;SDS011;59069;52.242;20.900;2024-01-25T08:02:46;6.88;;;1.10;;
70675;SDS011;59069;52.242;20.900;2024-01-25T08:05:11;8.30;;;1.10;;
70675;SDS011;59069;52.242;20.900;2024-01-25T08:07:37;6.53;;;1.17;;
70675;SDS011;59069;52.242;20.900;2024-01-25T08:10:03;8.20;;;1.20;;
70675;SDS011;59069;52.242;20.900;2024-01-25T08:12:29;7.85;;;1.00;;
70675;SDS011;59069;52.242;20.900;2024-01-25T08:14:55;7.95;;;1.15;;
70675;SDS011;59069;52.242;20.900;2024-01-25T08:17:20;5.07;;;0.77;;
70675;SDS011;59069;52.242;20.900;2024-01-25T08:19:46;5.33;;;1.20;;
70675;SDS011;59069;52.242;20.900;2024-01-25T08:22:12;6.03;;;1.00;;
70675;SDS011;59069;52.242;20.900;2024-01-25T08:24:40;10.73;;;1.50;;
70675;SDS011;59069;52.242;20.900;2024-01-25T08:27:05;5.10;;;0.80;;
70675;SDS011;59069;52.242;20.900;2024-01-25T08:29:32;5.03;;;0.70;;
70675;SDS011;59069;52.242;20.900;2024-01-25T08:31:58;6.00;;;1.00;;
70675;SDS011;59069;52.242;20.900;2024-01-25T08:34:23;6.72;;;1.10;;
70675;SDS011;59069;52.242;20.900;2024-01-25T08:36:49;5.13;;;0.83;;
70675;SDS011;59069;52.242;20.900;2024-01-25T08:39:14;4.53;;;0.77;;
70675;SDS011;59069;52.242;20.900;2024-01-25T08:41:41;6.13;;;1.20;;
70675;SDS011;59069;52.242;20.900;2024-01-25T08:44:07;5.10;;;0.87;;
70675;SDS011;59069;52.242;20.900;2024-01-25T08:46:33;4.38;;;0.70;;
70675;SDS011;59069;52.242;20.900;2024-01-25T08:48:58;6.70;;;1.13;;
70675;SDS011;59069;52.242;20.900;2024-01-25T08:51:24;4.38;;;0.80;;
70675;SDS011;59069;52.242;20.900;2024-01-25T08:53:49;4.70;;;0.90;;
70675;SDS011;59069;52.242;20.900;2024-01-25T08:56:16;5.55;;;0.90;;
70675;SDS011;59069;52.242;20.900;2024-01-25T08:58:42;4.80;;;0.87;;
70675;SDS011;59069;52.242;20.900;2024-01-25T09:01:07;4.63;;;0.82;;
70675;SDS011;59069;52.242;20.900;2024-01-25T09:03:33;5.47;;;0.83;;
70675;SDS011;59069;52.242;20.900;2024-01-25T09:05:58;6.83;;;0.63;;
70675;SDS011;59069;52.242;20.900;2024-01-25T09:08:30;6.28;;;0.90;;
70675;SDS011;59069;52.242;20.900;2024-01-25T09:10:55;5.47;;;1.00;;
70675;SDS011;59069;52.242;20.900;2024-01-25T09:13:21;5.60;;;1.00;;
70675;SDS011;59069;52.242;20.900;2024-01-25T09:15:48;6.07;;;0.90;;
70675;SDS011;59069;52.242;20.900;2024-01-25T09:18:13;4.27;;;0.70;;
70675;SDS011;59069;52.242;20.900;2024-01-25T09:20:39;4.50;;;0.90;;
70675;SDS011;59069;52.242;20.900;2024-01-25T09:23:05;8.20;;;1.30;;
70675;SDS011;59069;52.242;20.900;2024-01-25T09:25:31;6.05;;;1.23;;
70675;SDS011;59069;52.242;20.900;2024-01-25T09:27:57;5.20;;;1.10;;
70675;SDS011;59069;52.242;20.900;2024-01-25T09:30:23;5.20;;;0.87;;
70675;SDS011;59069;52.242;20.900;2024-01-25T09:32:48;7.18;;;1.10;;
70675;SDS011;59069;52.242;20.900;2024-01-25T09:35:14;4.10;;;0.80;;
70675;SDS011;59069;52.242;20.900;2024-01-25T09:37:39;6.13;;;1.17;;
70675;SDS011;59069;52.242;20.900;2024-01-25T09:40:05;4.87;;;1.00;;
70675;SDS011;59069;52.242;20.900;2024-01-25T09:42:31;5.13;;;1.10;;
70675;SDS011;59069;52.242;20.900;2024-01-25T09:44:56;7.45;;;1.00;;
70675;SDS011;59069;52.242;20.900;2024-01-25T09:47:22;5.47;;;1.00;;
70675;SDS011;59069;52.242;20.900;2024-01-25T09:49:48;5.00;;;1.00;;
70675;SDS011;59069;52.242;20.900;2024-01-25T09:52:14;6.73;;;1.10;;
70675;SDS011;59069;52.242;20.900;2024-01-25T09:54:41;4.80;;;0.90;;
70675;SDS011;59069;52.242;20.900;2024-01-25T09:57:13;4.85;;;1.17;;
70675;SDS011;59069;52.242;20.900;2024-01-25T09:59:42;5.67;;;1.03;;
70675;SDS011;59069;52.242;20.900;2024-01-25T10:02:09;6.18;;;1.08;;
70675;SDS011;59069;52.242;20.900;2024-01-25T10:04:35;5.80;;;1.15;;
70675;SDS011;59069;52.242;20.900;2024-01-25T10:07:01;4.97;;;1.17;;
70675;SDS011;59069;52.242;20.900;2024-01-25T10:09:26;6.45;;;1.17;;
70675;SDS011;59069;52.242;20.900;2024-01-25T10:11:52;5.20;;;1.20;;
70675;SDS011;59069;52.242;20.900;2024-01-25T10:14:17;4.82;;;1.00;;
70675;SDS011;59069;52.242;20.900;2024-01-25T10:16:44;4.37;;;0.97;;
70675;SDS011;59069;52.242;20.900;2024-01-25T10:19:10;5.10;;;1.00;;
70675;SDS011;59069;52.242;20.900;2024-01-25T10:21:37;4.80;;;1.00;;
70675;SDS011;59069;52.242;20.900;2024-01-25T10:24:02;5.80;;;0.98;;
70675;SDS011;59069;52.242;20.900;2024-01-25T10:26:30;4.60;;;1.00;;
70675;SDS011;59069;52.242;20.900;2024-01-25T10:28:55;4.72;;;0.80;;
70675;SDS011;59069;52.242;20.900;2024-01-25T10:31:24;5.37;;;1.10;;
70675;SDS011;59069;52.242;20.900;2024-01-25T10:33:51;5.20;;;0.90;;
70675;SDS011;59069;52.242;20.900;2024-01-25T10:36:18;4.53;;;0.80;;
70675;SDS011;59069;52.242;20.900;2024-01-25T10:38:46;6.13;;;1.02;;
70675;SDS011;59069;52.242;20.900;2024-01-25T10:41:13;4.83;;;1.10;;
70675;SDS011;59069;52.242;20.900;2024-01-25T10:43:40;6.72;;;1.23;;
70675;SDS011;59069;52.242;20.900;2024-01-25T10:46:06;6.03;;;1.08;;
70675;SDS011;59069;52.242;20.900;2024-01-25T10:48:32;7.05;;;1.27;;
70675;SDS011;59069;52.242;20.900;2024-01-25T10:50:58;5.23;;;0.90;;
70675;SDS011;59069;52.242;20.900;2024-01-25T10:53:27;5.00;;;0.90;;
70675;SDS011;59069;52.242;20.900;2024-01-25T10:55:56;5.22;;;1.05;;
70675;SDS011;59069;52.242;20.900;2024-01-25T10:58:22;6.07;;;1.07;;
70675;SDS011;59069;52.242;20.900;2024-01-25T11:00:57;5.15;;;1.02;;
70675;SDS011;59069;52.242;20.900;2024-01-25T11:03:25;4.63;;;0.80;;
70675;SDS011;59069;52.242;20.900;2024-01-25T11:05:52;5.47;;;1.15;;
70675;SDS011;59069;52.242;20.900;2024-01-25T11:08:18;7.03;;;1.30;;
70675;SDS011;59069;52.242;20.900;2024-01-25T11:10:46;4.90;;;0.90;;
70675;SDS011;59069;52.242;20.900;2024-01-25T11:13:16;6.57;;;0.85;;
70675;SDS011;59069;52.242;20.900;2024-01-25T11:15:41;5.68;;;1.30;;
70675;SDS011;59069;52.242;20.900;2024-01-25T11:18:07;4.90;;;1.00;;
70675;SDS011;59069;52.242;20.900;2024-01-25T11:20:34;5.55;;;1.00;;
70675;SDS011;59069;52.242;20.900;2024-01-25T11:23:07;6.80;;;1.02;;
70675;SDS011;59069;52.242;20.900;2024-01-25T11:25:35;4.53;;;1.03;;
70675;SDS011;59069;52.242;20.900;2024-01-25T11:28:02;6.05;;;1.00;;
70675;SDS011;59069;52.242;20.900;2024-01-25T11:30:33;5.75;;;1.33;;
70675;SDS011;59069;52.242;20.900;2024-01-25T11:32:59;5.60;;;1.10;;
70675;SDS011;59069;52.242;20.900;2024-01-25T11:35:25;7.50;;;1.23;;
70675;SDS011;59069;52.242;20.900;2024-01-25T11:37:50;7.05;;;1.02;;
70675;SDS011;59069;52.242;20.900;2024-01-25T11:40:19;4.90;;;0.90;;
70675;SDS011;59069;52.242;20.900;2024-01-25T11:42:48;6.93;;;1.00;;
70675;SDS011;59069;52.242;20.900;2024-01-25T11:45:14;6.38;;;1.65;;
70675;SDS011;59069;52.242;20.900;2024-01-25T11:47:40;6.30;;;1.10;;
70675;SDS011;59069;52.242;20.900;2024-01-25T11:50:08;5.47;;;1.40;;
70675;SDS011;59069;52.242;20.900;2024-01-25T11:52:35;5.25;;;1.23;;
70675;SDS011;59069;52.242;20.900;2024-01-25T11:55:04;6.63;;;1.50;;
70675;SDS011;59069;52.242;20.900;2024-01-25T11:57:31;4.60;;;1.20;;
70675;SDS011;59069;52.242;20.900;2024-01-25T11:59:59;5.85;;;1.20;;
70675;SDS011;59069;52.242;20.900;2024-01-25T12:02:25;6.13;;;1.30;;
70675;SDS011;59069;52.242;20.900;2024-01-25T12:04:52;5.38;;;1.00;;
70675;SDS011;59069;52.242;20.900;2024-01-25T12:07:19;6.45;;;1.25;;
70675;SDS011;59069;52.242;20.900;2024-01-25T12:09:56;6.18;;;1.63;;
70675;SDS011;59069;52.242;20.900;2024-01-25T12:12:25;6.47;;;1.30;;
70675;SDS011;59069;52.242;20.900;2024-01-25T12:14:50;8.65;;;1.35;;
70675;SDS011;59069;52.242;20.900;2024-01-25T12:17:17;6.38;;;1.40;;
70675;SDS011;59069;52.242;20.900;2024-01-25T12:19:43;7.43;;;1.80;;
70675;SDS011;59069;52.242;20.900;2024-01-25T12:22:08;7.03;;;1.40;;
70675;SDS011;59069;52.242;20.900;2024-01-25T12:24:34;6.33;;;1.40;;
70675;SDS011;59069;52.242;20.900;2024-01-25T12:27:00;6.15;;;1.63;;
70675;SDS011;59069;52.242;20.900;2024-01-25T12:29:25;6.67;;;1.67;;
70675;SDS011;59069;52.242;20.900;2024-01-25T12:31:51;5.93;;;1.17;;
70675;SDS011;59069;52.242;20.900;2024-01-25T12:34:16;6.33;;;1.50;;
70675;SDS011;59069;52.242;20.900;2024-01-25T12:36:42;6.63;;;1.50;;
70675;SDS011;59069;52.242;20.900;2024-01-25T12:39:08;7.28;;;1.10;;
70675;SDS011;59069;52.242;20.900;2024-01-25T12:41:33;5.70;;;1.00;;
70675;SDS011;59069;52.242;20.900;2024-01-25T12:44:00;5.00;;;1.20;;
70675;SDS011;59069;52.242;20.900;2024-01-25T12:46:25;5.53;;;0.90;;
70675;SDS011;59069;52.242;20.900;2024-01-25T12:48:51;4.20;;;0.67;;
70675;SDS011;59069;52.242;20.900;2024-01-25T12:51:20;4.60;;;0.68;;
70675;SDS011;59069;52.242;20.900;2024-01-25T12:53:46;5.20;;;0.97;;
70675;SDS011;59069;52.242;20.900;2024-01-25T12:56:12;5.07;;;1.00;;
70675;SDS011;59069;52.242;20.900;2024-01-25T12:58:38;4.97;;;0.90;;
70675;SDS011;59069;52.242;20.900;2024-01-25T13:01:04;5.47;;;0.80;;
70675;SDS011;59069;52.242;20.900;2024-01-25T13:03:30;5.60;;;0.88;;
70675;SDS011;59069;52.242;20.900;2024-01-25T13:05:55;4.67;;;1.00;;
70675;SDS011;59069;52.242;20.900;2024-01-25T13:08:20;4.57;;;0.90;;
70675;SDS011;59069;52.242;20.900;2024-01-25T13:10:46;5.30;;;1.20;;
70675;SDS011;59069;52.242;20.900;2024-01-25T13:13:11;6.22;;;1.27;;
70675;SDS011;59069;52.242;20.900;2024-01-25T13:15:37;5.87;;;1.27;;
70675;SDS011;59069;52.242;20.900;2024-01-25T13:18:02;6.87;;;1.40;;
70675;SDS011;59069;52.242;20.900;2024-01-25T13:20:28;5.67;;;1.60;;
70675;SDS011;59069;52.242;20.900;2024-01-25T13:22:53;5.68;;;1.23;;
70675;SDS011;59069;52.242;20.900;2024-01-25T13:25:18;5.03;;;1.10;;
70675;SDS011;59069;52.242;20.900;2024-01-25T13:27:44;5.27;;;1.57;;
70675;SDS011;59069;52.242;20.900;2024-01-25T13:30:10;6.17;;;1.43;;
70675;SDS011;59069;52.242;20.900;2024-01-25T13:32:37;5.75;;;1.60;;
70675;SDS011;59069;52.242;20.900;2024-01-25T13:35:02;5.70;;;1.50;;
70675;SDS011;59069;52.242;20.900;2024-01-25T13:37:28;5.68;;;1.48;;
70675;SDS011;59069;52.242;20.900;2024-01-25T13:39:54;5.70;;;1.50;;
70675;SDS011;59069;52.242;20.900;2024-01-25T13:42:19;5.80;;;1.60;;
70675;SDS011;59069;52.242;20.900;2024-01-25T13:44:44;5.40;;;1.60;;
70675;SDS011;59069;52.242;20.900;2024-01-25T13:47:10;7.30;;;1.90;;
70675;SDS011;59069;52.242;20.900;2024-01-25T13:49:35;4.87;;;1.37;;
70675;SDS011;59069;52.242;20.900;2024-01-25T13:52:01;7.00;;;1.87;;
70675;SDS011;59069;52.242;20.900;2024-01-25T13:54:28;5.97;;;1.27;;
70675;SDS011;59069;52.242;20.900;2024-01-25T13:56:54;6.38;;;1.60;;
70675;SDS011;59069;52.242;20.900;2024-01-25T13:59:20;5.78;;;1.40;;
70675;SDS011;59069;52.242;20.900;2024-01-25T14:01:46;7.37;;;1.40;;
70675;SDS011;59069;52.242;20.900;2024-01-25T14:04:11;7.30;;;1.97;;
70675;SDS011;59069;52.242;20.900;2024-01-25T14:06:37;10.82;;;2.95;;
70675;SDS011;59069;52.242;20.900;2024-01-25T14:09:02;10.20;;;3.37;;
70675;SDS011;59069;52.242;20.900;2024-01-25T14:11:28;6.45;;;1.50;;
70675;SDS011;59069;52.242;20.900;2024-01-25T14:13:54;7.63;;;1.90;;
70675;SDS011;59069;52.242;20.900;2024-01-25T14:16:19;5.20;;;1.57;;
70675;SDS011;59069;52.242;20.900;2024-01-25T14:18:45;6.97;;;1.73;;
70675;SDS011;59069;52.242;20.900;2024-01-25T14:21:10;7.10;;;1.67;;
70675;SDS011;59069;52.242;20.900;2024-01-25T14:23:36;5.77;;;1.70;;